createdAt,value
2018-11-12T00:01:50.471Z,100308.80
2018-11-12T00:04:39.019Z,100311.52
2018-11-12T00:07:08.151Z,100313.16
2018-11-12T00:09:37.106Z,100308.27
2018-11-12T00:12:06.134Z,100315.34
2018-11-12T00:14:35.159Z,100314.02
2018-11-12T00:17:04.432Z,100310.76
2018-11-12T00:19:33.460Z,100320.26
2018-11-12T00:22:02.545Z,100316.72
2018-11-12T00:24:31.515Z,100314.29
2018-11-12T00:27:00.569Z,100321.33
2018-11-12T00:29:29.608Z,100319.97
2018-11-12T00:31:58.600Z,100317.01
2018-11-12T00:34:27.601Z,100319.72
2018-11-12T00:36:56.588Z,100324.86
2018-11-12T00:39:25.544Z,100320.00
2018-11-12T00:41:54.523Z,100325.44
2018-11-12T00:44:23.485Z,100319.72
2018-11-12T00:46:52.510Z,100322.18
2018-11-12T00:49:21.534Z,100324.07
2018-11-12T00:51:50.663Z,100321.92
2018-11-12T00:54:19.656Z,100331.95
2018-11-12T00:56:48.675Z,100327.88
2018-11-12T00:59:17.717Z,100334.67
2018-11-12T01:01:46.710Z,100332.52
2018-11-12T01:04:15.842Z,100334.95
2018-11-12T01:06:44.794Z,100330.05
2018-11-12T01:09:13.986Z,100334.16
2018-11-12T01:11:42.980Z,100334.97
2018-11-12T01:14:12.044Z,100335.48
2018-11-12T01:16:41.166Z,100334.69
2018-11-12T01:19:10.300Z,100329.52
2018-11-12T01:21:39.306Z,100329.52
2018-11-12T01:24:08.477Z,100327.88
2018-11-12T01:26:37.446Z,100330.34
2018-11-12T01:29:06.501Z,100330.86
2018-11-12T01:31:35.526Z,100326.50
2018-11-12T01:34:04.588Z,100339.25
2018-11-12T01:36:33.532Z,100341.44
2018-11-12T01:39:02.667Z,100341.69
2018-11-12T01:41:31.709Z,100342.77
2018-11-12T01:44:00.706Z,100335.72
2018-11-12T01:46:29.656Z,100336.55
2018-11-12T01:48:58.620Z,100343.86
2018-11-12T01:51:27.573Z,100339.25
2018-11-12T01:53:56.628Z,100342.77
2018-11-12T01:56:25.573Z,100343.59
2018-11-12T01:58:54.611Z,100351.98
2018-11-12T02:01:24.220Z,100352.78
2018-11-12T02:03:53.301Z,100350.35
2018-11-12T02:06:22.311Z,100348.17
2018-11-12T02:08:51.500Z,100354.14
2018-11-12T02:11:20.540Z,100354.17
2018-11-12T02:13:49.620Z,100368.02
2018-11-12T02:16:18.622Z,100367.73
2018-11-12T02:18:47.670Z,100369.09
2018-11-12T02:21:16.668Z,100371.55
2018-11-12T02:23:45.698Z,100376.19
2018-11-12T02:26:14.808Z,100369.39
2018-11-12T02:28:43.952Z,100371.56
2018-11-12T02:31:13.021Z,100375.92
2018-11-12T02:33:42.079Z,100369.41
2018-11-12T02:36:11.094Z,100366.97
2018-11-12T02:38:40.121Z,100368.08
2018-11-12T02:41:09.116Z,100362.64
2018-11-12T02:43:38.215Z,100363.72
2018-11-12T02:46:07.316Z,100364.82
2018-11-12T02:48:36.300Z,100368.64
2018-11-12T02:51:05.808Z,100366.20
2018-11-12T02:53:34.871Z,100365.66
2018-11-12T02:56:04.024Z,100372.16
2018-11-12T02:58:33.007Z,100375.70
2018-11-12T03:01:01.981Z,100382.20
2018-11-12T03:03:31.000Z,100386.02
2018-11-12T03:06:00.069Z,100381.95
2018-11-12T03:08:29.064Z,100387.63
2018-11-12T03:10:58.157Z,100388.73
2018-11-12T03:13:27.297Z,100387.66
2018-11-12T03:15:56.248Z,100384.40
2018-11-12T03:18:25.276Z,100383.58
2018-11-12T03:20:54.339Z,100374.64
2018-11-12T03:23:23.393Z,100381.95
2018-11-12T03:25:52.465Z,100386.57
2018-11-12T03:28:21.640Z,100389.54
2018-11-12T03:30:50.723Z,100394.97
2018-11-12T03:33:19.763Z,100395.80
2018-11-12T03:35:48.897Z,100395.23
2018-11-12T03:38:18.006Z,100395.23
2018-11-12T03:40:47.058Z,100394.97
2018-11-12T03:43:16.070Z,100396.33
2018-11-12T03:45:45.046Z,100396.59
2018-11-12T03:48:14.120Z,100405.27
2018-11-12T03:50:43.113Z,100403.37
2018-11-12T03:53:12.207Z,100415.31
2018-11-12T03:55:41.220Z,100410.14
2018-11-12T03:58:10.293Z,100402.00
2018-11-12T04:00:39.328Z,100407.17
2018-11-12T04:03:08.339Z,100405.00
2018-11-12T04:05:37.365Z,100409.06
2018-11-12T04:08:06.460Z,100410.14
2018-11-12T04:10:35.481Z,100408.52
2018-11-12T04:13:04.509Z,100416.41
2018-11-12T04:15:33.569Z,100415.31
2018-11-12T04:18:02.550Z,100423.70
2018-11-12T04:20:31.532Z,100426.97
2018-11-12T04:23:05.077Z,100422.08
2018-11-12T04:25:36.829Z,100414.23
2018-11-12T04:28:06.005Z,100419.38
2018-11-12T04:30:35.234Z,100420.70
2018-11-12T04:33:04.359Z,100411.22
2018-11-12T04:35:33.351Z,100421.80
2018-11-12T04:38:02.363Z,100425.34
2018-11-12T04:40:31.398Z,100425.60
2018-11-12T04:43:00.408Z,100426.95
2018-11-12T04:45:29.495Z,100433.45
2018-11-12T04:47:58.498Z,100431.54
2018-11-12T04:50:28.544Z,100432.08
2018-11-12T04:52:57.562Z,100429.89
2018-11-12T04:55:26.845Z,100429.64
2018-11-12T04:57:55.746Z,100434.53
2018-11-12T05:00:26.205Z,100439.15
2018-11-12T05:02:55.492Z,100436.69
2018-11-12T05:05:25.712Z,100436.94
2018-11-12T05:07:54.709Z,100436.69
2018-11-12T05:10:26.311Z,100443.48
2018-11-12T05:12:55.933Z,100448.91
2018-11-12T05:15:25.662Z,100452.16
2018-11-12T05:17:54.661Z,100452.44
2018-11-12T05:20:25.837Z,100444.57
2018-11-12T05:22:54.874Z,100448.11
2018-11-12T05:25:23.985Z,100454.34
2018-11-12T05:27:53.124Z,100454.34
2018-11-12T05:30:25.269Z,100447.55
2018-11-12T05:32:54.274Z,100457.30
2018-11-12T05:35:24.494Z,100460.02
2018-11-12T05:37:53.757Z,100460.58
2018-11-12T05:40:24.723Z,100457.32
2018-11-12T05:42:53.870Z,100448.09
2018-11-12T05:45:24.165Z,100456.80
2018-11-12T05:47:53.325Z,100463.60
2018-11-12T05:50:24.611Z,100465.23
2018-11-12T05:52:55.431Z,100465.75
2018-11-12T05:55:25.677Z,100462.53
2018-11-12T05:57:54.728Z,100457.09
2018-11-12T06:00:29.439Z,100458.19
2018-11-12T06:02:58.462Z,100453.01
2018-11-12T06:05:27.615Z,100452.75
2018-11-12T06:07:56.690Z,100454.39
2018-11-12T06:10:27.159Z,100450.85
2018-11-12T06:12:56.219Z,100445.42
2018-11-12T06:15:25.417Z,100447.31
2018-11-12T06:17:54.407Z,100447.59
2018-11-12T06:20:33.407Z,100451.94
2018-11-12T06:23:02.440Z,100450.86
2018-11-12T06:25:32.918Z,100454.11
2018-11-12T06:28:01.949Z,100456.28
2018-11-12T06:30:33.368Z,100460.63
2018-11-12T06:33:02.422Z,100456.02
2018-11-12T06:35:31.448Z,100459.00
2018-11-12T06:38:00.499Z,100460.89
2018-11-12T06:40:29.600Z,100463.07
2018-11-12T06:42:58.657Z,100469.03
2018-11-12T06:45:28.912Z,100466.05
2018-11-12T06:47:58.615Z,100470.39
2018-11-12T06:50:30.038Z,100474.17
2018-11-12T06:52:59.386Z,100476.08
2018-11-12T06:55:28.395Z,100480.44
2018-11-12T06:57:57.808Z,100482.05
2018-11-12T07:00:28.215Z,100483.70
2018-11-12T07:02:57.290Z,100486.67
2018-11-12T07:05:26.599Z,100488.31
2018-11-12T07:07:55.619Z,100495.63
2018-11-12T07:10:25.781Z,100499.42
2018-11-12T07:12:55.552Z,100503.75
2018-11-12T07:15:25.883Z,100504.59
2018-11-12T07:17:55.041Z,100498.35
2018-11-12T07:20:25.106Z,100501.59
2018-11-12T07:22:54.478Z,100510.83
2018-11-12T07:25:25.068Z,100512.45
2018-11-12T07:27:54.056Z,100522.48
2018-11-12T07:30:26.116Z,100526.56
2018-11-12T07:32:56.441Z,100527.36
2018-11-12T07:35:25.956Z,100530.63
2018-11-12T07:37:55.788Z,100535.52
2018-11-12T07:40:25.312Z,100532.25
2018-11-12T07:42:54.426Z,100539.84
2018-11-12T07:45:25.686Z,100543.38
2018-11-12T07:47:56.082Z,100545.54
2018-11-12T07:50:26.571Z,100551.52
2018-11-12T07:52:55.769Z,100563.46
2018-11-12T07:55:25.952Z,100557.76
2018-11-12T07:57:56.029Z,100559.64
2018-11-12T08:00:28.421Z,100564.24
2018-11-12T08:03:02.677Z,100567.27
2018-11-12T08:05:31.824Z,100562.89
2018-11-12T08:08:00.882Z,100573.21
2018-11-12T08:10:29.884Z,100570.21
2018-11-12T08:12:58.932Z,100574.83
2018-11-12T08:15:27.986Z,100580.53
2018-11-12T08:17:57.040Z,100584.87
2018-11-12T08:20:26.903Z,100576.72
2018-11-12T08:22:56.032Z,100575.91
2018-11-12T08:25:25.273Z,100582.41
2018-11-12T08:27:54.317Z,100580.23
2018-11-12T08:30:25.493Z,100580.78
2018-11-12T08:32:55.860Z,100582.94
2018-11-12T08:35:25.069Z,100597.86
2018-11-12T08:37:55.781Z,100600.02
2018-11-12T08:40:25.961Z,100589.69
2018-11-12T08:42:55.038Z,100596.20
2018-11-12T08:45:24.558Z,100592.38
2018-11-12T08:47:54.779Z,100601.59
2018-11-12T08:50:25.170Z,100607.03
2018-11-12T08:52:54.886Z,100619.53
2018-11-12T08:55:25.261Z,100612.45
2018-11-12T08:57:55.625Z,100621.69
2018-11-12T09:00:25.432Z,100621.12
2018-11-12T09:02:55.095Z,100625.71
2018-11-12T09:05:25.722Z,100630.87
2018-11-12T09:07:57.240Z,100622.42
2018-11-12T09:10:27.722Z,100618.05
2018-11-12T09:12:57.621Z,100621.28
2018-11-12T09:15:26.929Z,100625.33
2018-11-12T09:17:55.992Z,100633.21
2018-11-12T09:20:27.119Z,100630.20
2018-11-12T09:22:56.527Z,100625.27
2018-11-12T09:25:26.673Z,100630.13
2018-11-12T09:27:55.744Z,100623.28
2018-11-12T09:30:27.060Z,100620.52
2018-11-12T09:32:56.258Z,100629.47
2018-11-12T09:35:26.656Z,100626.20
2018-11-12T09:37:56.731Z,100622.08
2018-11-12T09:40:34.535Z,100628.86
2018-11-12T09:43:03.583Z,100619.85
2018-11-12T09:45:32.677Z,100633.47
2018-11-12T09:48:01.918Z,100632.42
2018-11-12T09:50:31.125Z,100629.14
2018-11-12T09:53:01.305Z,100632.67
2018-11-12T09:55:31.456Z,100629.95
2018-11-12T09:58:03.855Z,100623.91
2018-11-12T10:00:33.149Z,100631.75
2018-11-12T10:03:03.076Z,100617.00
2018-11-12T10:05:33.152Z,100628.38
2018-11-12T10:08:05.194Z,100625.06
2018-11-12T10:10:59.198Z,100623.66
2018-11-12T10:13:28.858Z,100625.80
2018-11-12T10:15:59.997Z,100628.77
2018-11-12T10:18:25.662Z,100632.30
2018-11-12T10:20:54.926Z,100623.54
2018-11-12T10:23:24.326Z,100635.50
2018-11-12T10:25:53.743Z,100636.03
2018-11-12T10:28:23.778Z,100640.90
2018-11-12T10:30:52.927Z,100648.50
2018-11-12T10:33:28.693Z,100638.95
2018-11-12T10:36:15.104Z,100645.22
2018-11-12T10:38:44.194Z,100648.14
2018-11-12T10:41:13.395Z,100648.66
2018-11-12T10:43:42.425Z,100646.10
2018-11-12T10:46:11.706Z,100650.70
2018-11-12T10:48:40.805Z,100641.66
2018-11-12T10:51:10.140Z,100653.08
2018-11-12T10:53:49.843Z,100645.95
2018-11-12T10:56:08.437Z,100651.89
2018-11-12T10:58:37.547Z,100652.43
2018-11-12T11:01:11.504Z,100644.54
2018-11-12T11:03:50.810Z,100650.58
2018-11-12T11:06:19.900Z,100650.94
2018-11-12T11:08:48.995Z,100645.52
2018-11-12T11:11:18.032Z,100646.63
2018-11-12T11:13:47.048Z,100649.06
2018-11-12T11:16:16.108Z,100643.31
2018-11-12T11:18:45.136Z,100641.11
2018-11-12T11:21:14.161Z,100640.52
2018-11-12T11:23:43.211Z,100649.47
2018-11-12T11:26:12.212Z,100646.14
2018-11-12T11:31:33.559Z,100655.06
2018-11-12T11:34:02.801Z,100662.12
2018-11-12T11:36:31.837Z,100670.07
2018-11-12T11:39:00.916Z,100668.19
2018-11-12T11:41:29.878Z,100667.71
2018-11-12T11:43:59.091Z,100660.43
2018-11-12T11:46:28.255Z,100656.94
2018-11-12T11:48:57.380Z,100653.17
2018-11-12T11:51:26.369Z,100646.98
2018-11-12T11:53:55.467Z,100657.07
2018-11-12T11:56:24.677Z,100656.53
2018-11-12T11:58:53.812Z,100653.75
2018-11-12T12:01:23.020Z,100651.27
2018-11-12T12:03:56.306Z,100647.69
2018-11-12T12:06:25.424Z,100647.92
2018-11-12T12:08:54.613Z,100640.27
2018-11-12T12:11:23.714Z,100636.13
2018-11-12T12:13:52.931Z,100636.11
2018-11-12T12:16:22.608Z,100633.33
2018-11-12T12:18:51.909Z,100630.60
2018-11-12T12:21:21.087Z,100638.79
2018-11-12T12:23:50.057Z,100627.08
2018-11-12T12:26:19.209Z,100637.17
2018-11-12T12:28:48.241Z,100626.52
2018-11-12T12:31:17.262Z,100638.55
2018-11-12T12:33:46.232Z,100632.84
2018-11-12T12:36:15.337Z,100634.45
2018-11-12T12:38:44.338Z,100634.16
2018-11-12T12:41:13.440Z,100628.68
2018-11-12T12:43:42.569Z,100631.09
2018-11-12T12:46:11.545Z,100623.68
2018-11-12T12:48:40.608Z,100623.14
2018-11-12T12:51:09.711Z,100620.11
2018-11-12T12:53:38.708Z,100628.25
2018-11-12T12:56:07.728Z,100625.80
2018-11-12T12:58:36.772Z,100621.16
2018-11-12T13:01:05.916Z,100629.00
2018-11-12T13:03:34.964Z,100630.65
2018-11-12T13:06:03.984Z,100630.94
2018-11-12T13:08:33.049Z,100638.55
2018-11-12T13:11:02.466Z,100633.92
2018-11-12T13:13:31.478Z,100644.02
2018-11-12T13:16:00.482Z,100651.11
2018-11-12T13:18:29.482Z,100641.52
2018-11-12T13:20:58.544Z,100638.75
2018-11-12T13:23:27.566Z,100644.20
2018-11-12T13:25:56.636Z,100643.38
2018-11-12T13:28:27.397Z,100648.55
2018-11-12T13:30:56.420Z,100642.02
2018-11-12T13:33:25.538Z,100638.17
2018-11-12T13:35:54.575Z,100640.66
2018-11-12T13:38:23.677Z,100652.11
2018-11-12T13:40:52.710Z,100644.77
2018-11-12T13:43:21.851Z,100646.18
2018-11-12T13:45:50.799Z,100647.27
2018-11-12T13:48:19.830Z,100650.84
2018-11-12T13:50:48.958Z,100657.13
2018-11-12T13:53:18.041Z,100654.16
2018-11-12T13:55:47.130Z,100652.25
2018-11-12T13:58:16.508Z,100653.04
2018-11-12T14:00:45.585Z,100659.55
2018-11-12T14:03:14.620Z,100654.86
2018-11-12T14:05:43.590Z,100669.03
2018-11-12T14:08:12.580Z,100666.04
2018-11-12T14:10:41.550Z,100661.13
2018-11-12T14:13:10.804Z,100663.31
2018-11-12T14:15:40.083Z,100673.66
2018-11-12T14:18:09.350Z,100673.41
2018-11-12T14:20:38.956Z,100682.66
2018-11-12T14:23:07.899Z,100669.84
2018-11-12T14:25:36.969Z,100673.36
2018-11-12T14:28:06.613Z,100681.27
2018-11-12T14:30:35.807Z,100679.36
2018-11-12T14:33:05.173Z,100682.02
2018-11-12T14:35:34.530Z,100683.37
2018-11-12T14:38:03.533Z,100690.19
2018-11-12T14:40:32.666Z,100681.42
2018-11-12T14:43:01.852Z,100685.20
2018-11-12T14:45:30.991Z,100693.40
2018-11-12T14:48:00.098Z,100691.78
2018-11-12T14:50:29.173Z,100695.06
2018-11-12T14:52:58.776Z,100693.69
2018-11-12T14:55:27.814Z,100692.33
2018-11-12T14:57:57.104Z,100702.42
2018-11-12T15:00:27.120Z,100699.17
2018-11-12T15:02:57.983Z,100707.36
2018-11-12T15:05:27.196Z,100705.75
2018-11-12T15:07:56.380Z,100707.36
2018-11-12T15:10:25.526Z,100706.88
2018-11-12T15:12:54.756Z,100700.90
2018-11-12T15:15:24.429Z,100713.48
2018-11-12T15:17:57.800Z,100702.28
2018-11-12T15:20:26.894Z,100710.22
2018-11-12T15:22:55.929Z,100715.94
2018-11-12T15:25:25.883Z,100709.63
2018-11-12T15:27:55.035Z,100713.73
2018-11-12T15:30:25.254Z,100710.47
2018-11-12T15:32:55.396Z,100715.97
2018-11-12T15:35:24.385Z,100713.30
2018-11-12T15:37:53.658Z,100710.88
2018-11-12T15:40:23.050Z,100719.64
2018-11-12T15:42:52.070Z,100718.29
2018-11-12T15:45:22.490Z,100727.84
2018-11-12T15:47:53.246Z,100726.77
2018-11-12T15:50:27.601Z,100725.70
2018-11-12T15:52:56.622Z,100742.91
2018-11-12T15:55:25.783Z,100741.02
2018-11-12T15:57:54.903Z,100743.52
2018-11-12T16:00:24.161Z,100735.09
2018-11-12T16:02:53.235Z,100737.00
2018-11-12T16:05:23.156Z,100743.58
2018-11-12T16:07:52.268Z,100746.06
2018-11-12T16:10:22.199Z,100763.79
2018-11-12T16:12:52.082Z,100756.16
2018-11-12T16:15:21.838Z,100757.81
2018-11-12T16:17:51.028Z,100757.56
2018-11-12T16:20:22.292Z,100760.55
2018-11-12T16:22:51.785Z,100764.14
2018-11-12T16:25:21.221Z,100751.34
2018-11-12T16:27:50.460Z,100751.64
2018-11-12T16:30:19.529Z,100747.84
2018-11-12T16:32:48.662Z,100759.06
2018-11-12T16:35:19.595Z,100760.47
2018-11-12T16:37:49.399Z,100764.61
2018-11-12T16:40:18.557Z,100772.30
2018-11-12T16:42:48.301Z,100780.73
2018-11-12T16:45:17.514Z,100784.29
2018-11-12T16:47:46.855Z,100786.52
2018-11-12T16:50:16.675Z,100787.34
2018-11-12T16:52:45.731Z,100793.34
2018-11-12T16:55:17.604Z,100788.46
2018-11-12T16:57:46.998Z,100784.95
2018-11-12T17:00:17.478Z,100796.39
2018-11-12T17:02:46.927Z,100794.24
2018-11-12T17:05:17.470Z,100797.83
2018-11-12T17:07:46.537Z,100807.63
2018-11-12T17:10:17.124Z,100805.19
2018-11-12T17:12:47.103Z,100812.83
2018-11-12T17:15:16.460Z,100819.38
2018-11-12T17:17:45.975Z,100828.35
2018-11-12T17:20:16.584Z,100829.71
2018-11-12T17:22:46.199Z,100838.42
2018-11-12T17:25:16.101Z,100831.05
2018-11-12T17:27:45.572Z,100835.98
2018-11-12T17:30:17.717Z,100841.19
2018-11-12T17:32:47.089Z,100832.73
2018-11-12T17:35:17.455Z,100832.19
2018-11-12T17:37:46.998Z,100837.10
2018-11-12T17:40:20.505Z,100850.19
2018-11-12T17:42:50.126Z,100850.50
2018-11-12T17:45:22.214Z,100849.42
2018-11-12T17:47:52.393Z,100852.44
2018-11-12T17:50:21.464Z,100851.07
2018-11-12T17:52:50.699Z,100849.17
2018-11-12T17:55:20.648Z,100852.72
2018-11-12T17:57:49.664Z,100851.61
2018-11-12T18:00:22.191Z,100851.33
2018-11-12T18:02:51.239Z,100862.77
2018-11-12T18:05:20.431Z,100871.79
2018-11-12T18:07:49.551Z,100858.42
2018-11-12T18:10:19.079Z,100870.14
2018-11-12T18:12:48.241Z,100876.70
2018-11-12T18:15:18.762Z,100874.77
2018-11-12T18:17:47.860Z,100868.52
2018-11-12T18:20:18.651Z,100872.89
2018-11-12T18:22:48.101Z,100872.33
2018-11-12T18:25:17.517Z,100875.05
2018-11-12T18:27:46.656Z,100869.59
2018-11-12T18:30:22.100Z,100875.33
2018-11-12T18:32:52.469Z,100877.52
2018-11-12T18:35:21.760Z,100876.72
2018-11-12T18:37:50.846Z,100874.81
2018-11-12T18:40:23.002Z,100877.81
2018-11-12T18:42:52.070Z,100877.27
2018-11-12T18:45:22.295Z,100878.66
2018-11-12T18:47:51.781Z,100878.93
2018-11-12T18:50:28.712Z,100874.02
2018-11-12T18:52:57.773Z,100878.41
2018-11-12T18:55:26.747Z,100881.41
2018-11-12T18:57:56.348Z,100883.87
2018-11-12T19:00:26.880Z,100891.22
2018-11-12T19:02:56.195Z,100896.66
2018-11-12T19:05:26.691Z,100900.48
2018-11-12T19:07:57.063Z,100888.80
2018-11-12T19:10:27.682Z,100898.85
2018-11-12T19:12:56.784Z,100899.67
2018-11-12T19:15:27.614Z,100901.33
2018-11-12T19:18:02.506Z,100895.88
2018-11-12T19:20:31.541Z,100893.15
2018-11-12T19:23:00.796Z,100903.23
2018-11-12T19:25:29.829Z,100896.98
2018-11-12T19:27:58.817Z,100895.88
2018-11-12T19:30:28.738Z,100895.63
2018-11-12T19:32:57.704Z,100900.52
2018-11-12T19:35:29.897Z,100904.84
2018-11-12T19:37:58.975Z,100897.77
2018-11-12T19:40:29.171Z,100901.33
2018-11-12T19:42:58.708Z,100904.58
2018-11-12T19:45:27.668Z,100902.95
2018-11-12T19:47:56.640Z,100903.77
2018-11-12T19:50:27.611Z,100915.72
2018-11-12T19:52:57.742Z,100918.45
2018-11-12T19:55:26.953Z,100922.27
2018-11-12T19:57:55.989Z,100924.72
2018-11-12T20:00:29.001Z,100926.06
2018-11-12T20:02:59.273Z,100934.23
2018-11-12T20:05:28.264Z,100938.31
2018-11-12T20:07:57.983Z,100937.50
2018-11-12T20:10:27.015Z,100944.58
2018-11-12T20:12:56.186Z,100951.11
2018-11-12T20:15:25.875Z,100945.11
2018-11-12T20:17:55.936Z,100947.31
2018-11-12T20:20:31.431Z,100948.66
2018-11-12T20:23:03.064Z,100950.30
2018-11-12T20:25:32.138Z,100956.25
2018-11-12T20:28:01.164Z,100950.30
2018-11-12T20:30:39.264Z,100957.09
2018-11-12T20:33:08.304Z,100955.45
2018-11-12T20:35:37.780Z,100955.72
2018-11-12T20:38:06.856Z,100957.62
2018-11-12T20:40:35.938Z,100959.27
2018-11-12T20:43:04.909Z,100969.88
2018-11-12T20:45:34.005Z,100953.83
2018-11-12T20:48:03.015Z,100962.81
2018-11-12T20:50:32.024Z,100958.72
2018-11-12T20:53:01.121Z,100949.74
2018-11-12T20:55:30.301Z,100960.34
2018-11-12T20:57:59.295Z,100987.02
2018-11-12T21:00:29.012Z,100999.55
2018-11-12T21:02:58.775Z,100991.38
2018-11-12T21:05:28.948Z,100986.47
2018-11-12T21:07:58.020Z,101004.41
2018-11-12T21:10:27.182Z,101002.24
2018-11-12T21:12:56.232Z,101006.33
2018-11-12T21:15:26.377Z,101010.42
2018-11-12T21:17:55.638Z,101013.42
2018-11-12T21:20:25.804Z,101008.23
2018-11-12T21:22:55.082Z,101013.68
2018-11-12T21:25:25.364Z,101018.05
2018-11-12T21:27:54.794Z,101022.67
2018-11-12T21:30:27.627Z,101023.48
2018-11-12T21:32:56.694Z,101021.31
2018-11-12T21:35:25.869Z,101033.04
2018-11-12T21:38:02.337Z,101032.49
2018-11-12T21:40:31.788Z,101022.14
2018-11-12T21:43:00.865Z,101018.89
2018-11-12T21:45:30.846Z,101019.70
2018-11-12T21:47:59.843Z,101033.31
2018-11-12T21:50:29.400Z,101037.92
2018-11-12T21:52:58.468Z,101042.02
2018-11-12T21:55:27.531Z,101025.43
2018-11-12T21:57:56.683Z,101040.94
2018-11-12T22:00:27.297Z,101037.13
2018-11-12T22:03:00.536Z,101032.23
2018-11-12T22:05:30.526Z,101046.95
2018-11-12T22:07:59.629Z,101049.67
2018-11-12T22:10:28.798Z,101051.86
2018-11-12T22:12:58.535Z,101062.47
2018-11-12T22:15:27.609Z,101058.13
2018-11-12T22:17:56.689Z,101061.66
2018-11-12T22:20:27.016Z,101063.04
2018-11-12T22:22:56.805Z,101060.05
2018-11-12T22:25:26.018Z,101065.77
2018-11-12T22:27:55.098Z,101067.97
2018-11-12T22:30:25.480Z,101085.66
2018-11-12T22:32:55.248Z,101096.55
2018-11-12T22:35:24.386Z,101090.58
2018-11-12T22:37:53.460Z,101100.91
2018-11-12T22:40:23.917Z,101096.54
2018-11-12T22:42:53.577Z,101098.70
2018-11-12T22:45:24.072Z,101102.25
2018-11-12T22:47:53.277Z,101103.61
2018-11-12T22:50:22.243Z,101108.77
2018-11-12T22:52:51.350Z,101105.50
2018-11-12T22:55:20.865Z,101107.95
2018-11-12T22:57:49.834Z,101104.69
2018-11-12T23:00:26.045Z,101109.59
2018-11-12T23:02:55.595Z,101113.95
2018-11-12T23:05:25.068Z,101112.30
2018-11-12T23:07:54.810Z,101124.00
2018-11-12T23:10:23.878Z,101126.42
2018-11-12T23:12:53.344Z,101129.16
2018-11-12T23:15:23.411Z,101134.89
2018-11-12T23:18:03.787Z,101129.70
2018-11-12T23:20:45.050Z,101146.89
2018-11-12T23:23:25.102Z,101141.45
2018-11-12T23:26:06.886Z,101153.70
2018-11-12T23:28:46.636Z,101156.17
2018-11-12T23:31:29.591Z,101158.08
2018-11-12T23:33:59.399Z,101164.89
2018-11-12T23:36:29.755Z,101167.34
2018-11-12T23:38:58.896Z,101166.26
2018-11-12T23:41:48.636Z,101165.70
2018-11-12T23:44:41.811Z,101161.91
2018-11-12T23:47:19.019Z,101172.29
2018-11-12T23:52:54.027Z,101182.37
2018-11-12T23:55:39.283Z,101187.56
2018-11-12T23:58:23.752Z,101189.19
